메인 페이지
METAR-TAF:

METAR-TAF

공항 :

시드니 킹스포드 스미스 국제공항

시드니, 오스트레일리아

위도: 33-57S, 경도: 151-11E, 고도: 6m

현재 날씨관측

예보는 37분 전, 15:00시(UTC)에 발표되었습니다.
11kt
온도 17°C
습도 72%
기압 1026 hPa
시정 10km 이상
고도 2000ft 상공 구름 조금
고도 6000ft 상공 구름 많음

METAR: YSSY 241500Z 17011KT 9999 FEW020 BKN060 17/12 Q1026

시각: 01:37 (15:37 UTC)

예보

예보는 4 시간 20분 전, 11:17시(UTC)에 발표되었습니다.
예보 대상 시간: 24일 12시부터 25일 18시까지 (UTC)
남남서8kt
시정 10km 이상
고도 2500ft 상공 구름 보통
고도 3500ft 상공 구름 많음
25일 0000시부터 (UTC)
남남동12kt
시정 10km 이상
고도 3500ft 상공 구름 보통
25일 1000시부터 (UTC)
남서8kt
시정 10km 이상
고도 3500ft 상공 구름 조금

TAF: YSSY 241117Z 2412/2518 21008KT 9999 SCT025 BKN035 FM250000 16012KT 9999 SCT035 FM251000 22008KT 9999 FEW035

4,000개 이상의 공항 관측 자료 및 예보 (METAR 및 TAF 보고).

지도상에서 검색 가능한 기상관측소가 노란 점과 빨간 점으로 표시되어 있습니다.

기상관측소 명을 보려면 표시 위로 마우스를 이동하세요.

날씨 관측과 예보를 보려면 클릭하세요.

지도 변경 : 확대하려면 엑스 표시가 있는 녹색 버튼, 축소하려면 빼기 표시가 있는 녹색 버튼, 다음 페이지의 지도를 보려면 녹색 화살표를 클릭하세요.


METAR-TAF: